Time;durP1;ratioP1;P1;durP2;ratioP2;P2;SDS_P1;SDS_P2;PMS_P1;PMS_P2;Temp;Humidity;BMP_temperature;BMP_pressure;BME280_temperature;BME280_humidity;BME280_pressure;Samples;Min_cycle;Max_cycle;Signal;HPM_P1;HPM_P2
2021/10/10 00:00:33;;;;;;;883.87;827.73;;;6.10;99.90;;;;;;5013883;28;20449;-90
2021/10/10 00:03:01;;;;;;;899.33;841.07;;;6.10;99.90;;;;;;5014582;28;20542;-90
2021/10/10 00:05:28;;;;;;;905.37;844.57;;;6.10;99.90;;;;;;5014762;28;20457;-90
2021/10/10 00:07:55;;;;;;;901.10;840.90;;;6.10;99.90;;;;;;5014422;28;20967;-90
2021/10/10 00:10:22;;;;;;;903.23;843.63;;;6.00;99.90;;;;;;5014482;28;20485;-89
2021/10/10 00:12:49;;;;;;;910.43;849.13;;;6.10;99.90;;;;;;5014623;28;20500;-88
2021/10/10 00:15:16;;;;;;;914.07;853.70;;;6.10;99.90;;;;;;5013365;28;21111;-91
2021/10/10 00:17:43;;;;;;;912.77;851.87;;;6.10;99.90;;;;;;5014528;28;20466;-90
2021/10/10 00:20:13;;;;;;;910.60;851.20;;;6.00;99.90;;;;;;5014258;28;20453;-89
2021/10/10 00:22:42;;;;;;;926.20;863.63;;;6.00;99.90;;;;;;4995408;28;20824;-90
2021/10/10 00:25:10;;;;;;;905.80;846.27;;;6.10;99.90;;;;;;4994333;28;20456;-90
2021/10/10 00:27:38;;;;;;;867.47;813.93;;;5.90;99.90;;;;;;4994409;28;20485;-88
2021/10/10 00:30:06;;;;;;;853.80;802.10;;;5.80;99.90;;;;;;4993677;28;20462;-90
2021/10/10 00:32:34;;;;;;;851.13;799.87;;;5.80;99.90;;;;;;4976043;28;20462;-88
2021/10/10 00:35:01;;;;;;;859.30;806.67;;;5.60;99.90;;;;;;4994092;28;20462;-89
2021/10/10 00:37:30;;;;;;;867.67;813.90;;;5.70;99.90;;;;;;4993947;28;20442;-90
2021/10/10 00:39:57;;;;;;;884.47;829.17;;;5.70;99.90;;;;;;4994067;28;20462;-86
2021/10/10 00:42:24;;;;;;;900.73;842.77;;;5.50;99.90;;;;;;4994410;28;20478;-90
2021/10/10 00:44:54;;;;;;;926.07;863.87;;;5.30;99.90;;;;;;4994870;28;20458;-90
2021/10/10 00:47:21;;;;;;;944.70;878.30;;;5.40;99.90;;;;;;4995282;28;20458;-89
2021/10/10 00:49:48;;;;;;;933.47;868.30;;;5.40;99.90;;;;;;4995070;28;20466;-89
2021/10/10 00:52:17;;;;;;;926.00;862.10;;;5.40;99.90;;;;;;4995478;28;20484;-89
2021/10/10 00:54:48;;;;;;;911.50;851.53;;;5.40;99.90;;;;;;4995618;28;20454;-89
2021/10/10 00:57:16;;;;;;;890.63;832.50;;;5.20;99.90;;;;;;4995614;28;20458;-90
2021/10/10 00:59:45;;;;;;;881.20;824.40;;;5.10;99.90;;;;;;4994998;28;20872;-91
2021/10/10 01:02:12;;;;;;;887.33;829.57;;;5.00;99.90;;;;;;4995542;28;20561;-88
2021/10/10 01:04:39;;;;;;;892.00;832.70;;;5.00;99.90;;;;;;4995395;28;20800;-89
2021/10/10 01:07:07;;;;;;;921.17;859.17;;;4.80;99.90;;;;;;4995621;28;20490;-90
2021/10/10 01:09:35;;;;;;;910.47;848.47;;;5.00;99.90;;;;;;4996332;28;20461;-90
2021/10/10 01:12:05;;;;;;;909.33;847.27;;;4.80;99.90;;;;;;4996286;28;20458;-91
2021/10/10 01:14:33;;;;;;;939.17;872.70;;;4.70;99.90;;;;;;4995595;28;20458;-90
2021/10/10 01:17:00;;;;;;;948.27;878.67;;;4.60;99.90;;;;;;4996493;28;20481;-88
2021/10/10 01:19:32;;;;;;;956.67;887.40;;;4.60;99.90;;;;;;4999486;28;20487;-90
2021/10/10 01:22:01;;;;;;;964.70;894.10;;;4.80;99.90;;;;;;5000459;28;20973;-90
2021/10/10 01:24:31;;;;;;;955.33;886.20;;;4.70;99.90;;;;;;5000391;28;20523;-88
2021/10/10 01:26:58;;;;;;;975.17;903.50;;;4.60;99.90;;;;;;5000553;28;20873;-89
2021/10/10 01:29:28;;;;;;;970.90;897.43;;;4.60;99.90;;;;;;4999272;28;20565;-90
2021/10/10 01:31:55;;;;;;;959.23;889.70;;;4.50;99.90;;;;;;5000719;28;20993;-87
2021/10/10 01:34:22;;;;;;;952.70;883.40;;;4.50;99.90;;;;;;5000034;28;20458;-87
2021/10/10 01:36:49;;;;;;;961.07;890.90;;;4.30;99.90;;;;;;5000090;28;20520;-89
2021/10/10 01:39:17;;;;;;;958.47;889.00;;;4.10;99.90;;;;;;5000444;28;20458;-90
2021/10/10 01:41:44;;;;;;;963.03;891.57;;;4.10;99.90;;;;;;5019594;28;20461;-90
2021/10/10 01:44:17;;;;;;;968.23;895.40;;;4.30;99.90;;;;;;5018328;28;20503;-90
2021/10/10 01:46:45;;;;;;;962.63;891.53;;;4.10;99.90;;;;;;5019731;28;20487;-90
2021/10/10 01:49:12;;;;;;;955.57;885.90;;;3.90;99.90;;;;;;5019655;28;20948;-89
2021/10/10 01:51:40;;;;;;;954.20;886.67;;;3.90;99.90;;;;;;5019277;28;20544;-89
2021/10/10 01:54:09;;;;;;;969.30;896.70;;;3.90;99.90;;;;;;5019163;28;20537;-90
2021/10/10 01:56:37;;;;;;;975.90;902.00;;;3.80;99.90;;;;;;5019002;28;20540;-86
2021/10/10 01:59:04;;;;;;;975.13;902.87;;;3.80;99.90;;;;;;5018309;28;20457;-88
2021/10/10 02:01:32;;;;;;;974.80;901.90;;;4.00;99.90;;;;;;5018611;28;20477;-89
2021/10/10 02:03:59;;;;;;;975.70;904.17;;;3.90;99.90;;;;;;5018531;28;20477;-89
2021/10/10 02:06:26;;;;;;;981.73;909.30;;;4.00;99.90;;;;;;5018255;28;20489;-91
2021/10/10 02:08:53;;;;;;;973.73;902.27;;;3.80;99.90;;;;;;5018932;28;20488;-88
2021/10/10 02:11:20;;;;;;;986.93;912.70;;;3.80;99.90;;;;;;5019426;28;20552;-89
2021/10/10 02:13:49;;;;;;;1002.13;925.37;;;3.70;99.90;;;;;;5020522;28;20488;-88
2021/10/10 02:16:17;;;;;;;1000.47;924.50;;;3.90;99.90;;;;;;5019100;28;20528;-90
2021/10/10 02:18:45;;;;;;;1004.40;930.00;;;4.00;99.90;;;;;;5019388;28;20460;-89
2021/10/10 02:21:12;;;;;;;994.80;922.27;;;3.90;99.90;;;;;;5018852;28;20477;-87
2021/10/10 02:23:39;;;;;;;1001.43;927.50;;;3.70;99.90;;;;;;5017865;28;20524;-87
2021/10/10 02:26:06;;;;;;;989.40;916.70;;;3.70;99.90;;;;;;5018736;28;20457;-90
2021/10/10 02:28:33;;;;;;;1006.57;931.53;;;3.70;99.90;;;;;;5018402;28;20545;-90
2021/10/10 02:31:01;;;;;;;990.80;919.10;;;3.90;99.90;;;;;;5015008;28;20485;-90
2021/10/10 02:33:28;;;;;;;987.00;917.03;;;3.80;99.90;;;;;;5018740;28;20465;-89
2021/10/10 02:35:57;;;;;;;992.40;922.53;;;3.60;99.90;;;;;;5018576;28;20499;-90
2021/10/10 02:38:24;;;;;;;984.70;915.07;;;3.60;99.90;;;;;;5019162;28;20945;-88
2021/10/10 02:40:57;;;;;;;971.37;903.07;;;3.60;99.90;;;;;;5019335;28;20552;-89
2021/10/10 02:43:23;;;;;;;991.80;921.63;;;3.40;99.90;;;;;;5016208;28;20543;-89
2021/10/10 02:45:56;;;;;;;992.30;920.10;;;3.40;99.90;;;;;;5014995;28;20453;-90
2021/10/10 02:48:26;;;;;;;992.93;920.73;;;3.60;99.90;;;;;;5015913;28;20457;-89
2021/10/10 02:50:55;;;;;;;989.30;917.17;;;3.50;99.90;;;;;;5015853;28;20889;-89
2021/10/10 02:53:24;;;;;;;993.70;921.97;;;3.50;99.90;;;;;;5015277;28;20536;-89
2021/10/10 02:55:53;;;;;;;998.57;925.67;;;3.60;99.90;;;;;;5015265;28;20477;-90
2021/10/10 02:58:20;;;;;;;998.13;924.37;;;3.50;99.90;;;;;;5015236;28;20476;-89
2021/10/10 03:00:51;;;;;;;997.87;924.00;;;3.50;99.90;;;;;;5014021;28;20564;-89
2021/10/10 03:03:20;;;;;;;997.93;924.17;;;3.70;99.90;;;;;;5015446;28;20479;-90
2021/10/10 03:05:58;;;;;;;1008.07;934.07;;;3.60;99.90;;;;;;5015009;28;20834;-89
2021/10/10 03:08:26;;;;;;;997.63;924.30;;;3.70;99.90;;;;;;5015084;28;20457;-89
2021/10/10 03:11:00;;;;;;;1001.37;927.20;;;3.50;99.90;;;;;;5015156;28;20457;-89
2021/10/10 03:13:27;;;;;;;992.93;919.37;;;3.50;99.90;;;;;;5015280;28;20910;-89
2021/10/10 03:16:05;;;;;;;1009.67;934.43;;;3.50;99.90;;;;;;5014210;28;20453;-87
2021/10/10 03:18:33;;;;;;;1010.00;934.83;;;3.40;99.90;;;;;;5015252;28;20857;-88
2021/10/10 03:21:01;;;;;;;1007.00;931.27;;;3.50;99.90;;;;;;5014808;28;20474;-89
2021/10/10 03:23:28;;;;;;;1011.53;935.50;;;3.60;99.90;;;;;;4995634;28;20951;-87
2021/10/10 03:26:01;;;;;;;1023.30;945.83;;;3.70;99.90;;;;;;4996320;28;21039;-89
2021/10/10 03:28:31;;;;;;;1004.87;929.57;;;3.70;99.90;;;;;;4995957;28;20857;-90
2021/10/10 03:30:58;;;;;;;1013.60;938.27;;;3.50;99.90;;;;;;4994753;28;20810;-89
2021/10/10 03:33:25;;;;;;;1015.07;940.00;;;3.50;99.90;;;;;;4995595;28;20819;-90
2021/10/10 03:35:58;;;;;;;1016.80;941.90;;;3.40;99.90;;;;;;4995174;28;20453;-90
2021/10/10 03:38:27;;;;;;;1016.43;941.00;;;3.50;99.90;;;;;;4995170;28;20469;-87
2021/10/10 03:40:55;;;;;;;1008.27;932.50;;;3.50;99.90;;;;;;4994803;28;20525;-90
2021/10/10 03:43:22;;;;;;;1015.77;938.40;;;3.60;99.90;;;;;;4994634;28;20477;-91
2021/10/10 03:45:49;;;;;;;1025.13;947.60;;;3.70;99.90;;;;;;4993983;28;20454;-90
2021/10/10 03:48:16;;;;;;;1016.63;939.23;;;4.00;99.90;;;;;;4995261;28;20454;-89
2021/10/10 03:50:43;;;;;;;1016.53;939.03;;;4.20;99.90;;;;;;4995233;28;20516;-92
2021/10/10 03:53:10;;;;;;;1015.70;938.40;;;4.30;99.90;;;;;;4995984;28;20486;-88
2021/10/10 03:55:40;;;;;;;1020.33;943.27;;;4.30;99.90;;;;;;4994951;28;20473;-91
2021/10/10 03:58:12;;;;;;;1024.20;948.10;;;4.40;99.90;;;;;;4995024;28;20486;-89
2021/10/10 04:00:45;;;;;;;1015.17;940.17;;;4.50;99.90;;;;;;4993696;28;20905;-87
2021/10/10 04:03:17;;;;;;;1015.70;940.30;;;4.60;99.90;;;;;;4994697;28;20466;-89
2021/10/10 04:05:45;;;;;;;1008.30;933.57;;;4.60;99.90;;;;;;4995405;28;20458;-86
2021/10/10 04:08:18;;;;;;;995.23;921.13;;;4.70;99.90;;;;;;4997506;28;20450;-91
2021/10/10 04:10:59;;;;;;;997.07;923.07;;;4.80;99.90;;;;;;4996705;28;20451;-91
2021/10/10 04:13:26;;;;;;;995.27;924.43;;;4.60;99.90;;;;;;4994942;28;20460;-91
2021/10/10 04:15:53;;;;;;;986.10;915.70;;;4.40;99.90;;;;;;4993742;28;20454;-89
2021/10/10 04:18:19;;;;;;;965.07;899.20;;;4.20;99.90;;;;;;4994672;28;20486;-85
2021/10/10 04:20:46;;;;;;;969.47;902.17;;;4.00;99.90;;;;;;5003197;28;20477;-89
2021/10/10 04:23:13;;;;;;;971.73;902.37;;;3.90;99.90;;;;;;5013526;28;20457;-86
2021/10/10 04:25:42;;;;;;;970.00;901.23;;;3.80;99.90;;;;;;5014732;28;20480;-85
2021/10/10 04:28:10;;;;;;;976.23;907.20;;;3.80;99.90;;;;;;5013876;28;20548;-85
2021/10/10 04:30:39;;;;;;;986.50;915.20;;;3.70;99.90;;;;;;5013891;28;20457;-88
2021/10/10 04:33:08;;;;;;;981.53;909.20;;;3.70;99.90;;;;;;5015132;28;20826;-87
2021/10/10 04:35:35;;;;;;;984.03;911.03;;;3.70;99.90;;;;;;5014527;28;20457;-83
2021/10/10 04:38:05;;;;;;;990.40;915.80;;;3.60;99.90;;;;;;5013914;28;20449;-86
2021/10/10 04:40:32;;;;;;;992.43;917.87;;;3.80;99.90;;;;;;5013963;28;20520;-88
2021/10/10 04:42:59;;;;;;;992.43;917.53;;;3.80;99.90;;;;;;5013356;28;20543;-89
2021/10/10 04:45:27;;;;;;;1001.13;926.17;;;3.80;99.90;;;;;;5011835;28;20584;-84
2021/10/10 04:47:54;;;;;;;992.57;918.60;;;3.80;99.90;;;;;;5013437;28;20826;-89
2021/10/10 04:50:21;;;;;;;988.87;915.97;;;4.00;99.90;;;;;;5014018;28;20958;-85
2021/10/10 04:52:48;;;;;;;987.90;915.80;;;4.10;99.90;;;;;;5013388;28;20492;-86
2021/10/10 04:55:17;;;;;;;995.10;921.10;;;4.10;99.90;;;;;;5014721;28;20457;-89
2021/10/10 04:57:44;;;;;;;991.33;918.87;;;4.00;99.90;;;;;;5013400;28;20468;-87
2021/10/10 05:00:12;;;;;;;986.00;913.20;;;3.90;99.90;;;;;;5012016;28;20829;-89
2021/10/10 05:02:42;;;;;;;986.07;914.30;;;3.90;99.90;;;;;;5014239;28;20523;-90
2021/10/10 05:05:10;;;;;;;975.93;906.40;;;3.70;99.90;;;;;;5014232;28;20572;-90
2021/10/10 05:07:37;;;;;;;975.60;905.53;;;3.70;99.90;;;;;;5013672;28;20449;-85
2021/10/10 05:10:07;;;;;;;978.40;906.87;;;3.60;99.90;;;;;;5014212;28;20457;-83
2021/10/10 05:12:33;;;;;;;985.50;912.63;;;3.50;99.90;;;;;;5013708;28;20515;-90
2021/10/10 05:15:00;;;;;;;985.33;913.43;;;3.60;99.90;;;;;;5011621;28;20887;-83
2021/10/10 05:17:27;;;;;;;986.30;912.27;;;3.50;99.90;;;;;;5012951;28;20508;-88
2021/10/10 05:19:56;;;;;;;979.00;904.90;;;3.70;99.90;;;;;;5014057;28;20460;-90
2021/10/10 05:22:26;;;;;;;989.90;914.90;;;3.60;99.90;;;;;;5013138;28;20551;-89
2021/10/10 05:24:54;;;;;;;990.17;914.13;;;3.80;99.90;;;;;;5012899;28;20835;-90
2021/10/10 05:27:26;;;;;;;996.10;920.50;;;4.00;99.90;;;;;;5013041;28;20540;-89
2021/10/10 05:29:52;;;;;;;996.77;922.07;;;4.00;99.90;;;;;;5012004;28;20549;-90
2021/10/10 05:32:20;;;;;;;998.33;923.17;;;4.10;99.90;;;;;;5013480;28;20461;-90
2021/10/10 05:34:47;;;;;;;990.00;915.50;;;4.00;99.90;;;;;;5012853;28;20881;-94
2021/10/10 05:37:15;;;;;;;998.53;924.87;;;4.00;99.90;;;;;;5013508;28;20478;-91
2021/10/10 05:39:44;;;;;;;994.47;922.30;;;3.90;99.90;;;;;;5014091;28;20544;-89
2021/10/10 05:42:11;;;;;;;986.27;914.20;;;3.90;99.90;;;;;;4998491;28;20492;-88
2021/10/10 05:44:38;;;;;;;992.60;918.83;;;3.90;99.90;;;;;;5014888;28;20491;-90
2021/10/10 05:47:05;;;;;;;982.27;909.47;;;3.90;99.90;;;;;;5013019;28;20453;-90
2021/10/10 05:49:32;;;;;;;981.23;907.83;;;3.80;99.90;;;;;;5013722;28;20481;-88
2021/10/10 05:51:59;;;;;;;978.20;905.50;;;4.00;99.90;;;;;;5012571;28;20477;-88
2021/10/10 05:54:30;;;;;;;973.03;900.60;;;3.90;99.90;;;;;;5012700;28;20797;-88
2021/10/10 05:56:59;;;;;;;972.17;900.10;;;4.00;99.90;;;;;;5012687;28;20457;-87
2021/10/10 05:59:25;;;;;;;968.50;895.87;;;4.00;99.90;;;;;;5011681;28;20560;-88
2021/10/10 06:01:52;;;;;;;971.50;899.23;;;4.00;99.90;;;;;;5015193;28;20503;-91
2021/10/10 06:04:19;;;;;;;973.73;901.63;;;4.10;99.90;;;;;;5015047;28;20501;-91
2021/10/10 06:06:48;;;;;;;980.43;907.37;;;4.10;99.90;;;;;;5020480;28;20461;-88
2021/10/10 06:09:17;;;;;;;969.47;896.20;;;4.10;99.90;;;;;;5018802;28;20461;-89
2021/10/10 06:11:46;;;;;;;972.30;898.40;;;4.30;99.90;;;;;;5016380;28;20449;-91
2021/10/10 06:14:14;;;;;;;971.03;897.93;;;4.20;99.90;;;;;;5015591;28;20457;-88
2021/10/10 06:16:42;;;;;;;953.00;881.23;;;4.30;99.90;;;;;;5016004;28;20464;-89
2021/10/10 06:19:09;;;;;;;952.07;881.07;;;4.40;99.90;;;;;;5015750;28;20461;-88
2021/10/10 06:21:36;;;;;;;952.80;882.80;;;4.60;99.90;;;;;;5015541;28;20484;-89
2021/10/10 06:24:03;;;;;;;952.33;882.03;;;4.60;99.90;;;;;;5015856;28;20515;-90
2021/10/10 06:26:30;;;;;;;950.90;881.53;;;4.40;99.90;;;;;;5017871;28;20453;-85
2021/10/10 06:29:00;;;;;;;934.93;865.67;;;4.50;99.90;;;;;;5016388;28;20461;-91
2021/10/10 06:31:27;;;;;;;951.57;880.97;;;4.50;99.90;;;;;;5016666;28;20457;-91
2021/10/10 06:33:54;;;;;;;945.47;873.90;;;4.60;99.90;;;;;;5016758;28;20516;-90
2021/10/10 06:36:23;;;;;;;951.87;879.87;;;4.70;99.90;;;;;;5014875;28;20461;-89
2021/10/10 06:38:50;;;;;;;952.63;880.43;;;4.90;99.90;;;;;;5015366;28;20527;-89
2021/10/10 06:41:18;;;;;;;957.07;883.97;;;4.90;99.90;;;;;;5015399;28;20552;-90
2021/10/10 06:43:47;;;;;;;944.67;872.10;;;5.00;99.90;;;;;;5015321;28;20461;-88
2021/10/10 06:46:21;;;;;;;952.83;880.10;;;5.10;99.90;;;;;;5014211;28;20489;-90
2021/10/10 06:48:49;;;;;;;958.50;884.60;;;5.20;99.90;;;;;;5016890;28;20493;-91
2021/10/10 06:52:20;;;;;;;;;;;;;;;;;;;;;
2021/10/10 06:57:15;;;;;;;949.97;877.10;;;5.60;99.90;;;;;;5034753;28;20555;-94
2021/10/10 06:59:44;;;;;;;946.53;874.20;;;5.70;99.90;;;;;;5036804;28;20488;-90
2021/10/10 07:02:12;;;;;;;946.17;872.83;;;5.70;99.90;;;;;;5036090;28;20456;-90
2021/10/10 07:04:41;;;;;;;949.50;876.40;;;5.80;99.90;;;;;;5036012;28;20494;-88
2021/10/10 07:07:09;;;;;;;939.20;865.90;;;5.90;99.90;;;;;;5034765;28;20464;-88
2021/10/10 07:09:40;;;;;;;942.10;868.70;;;6.00;99.90;;;;;;5035534;28;20503;-87
2021/10/10 07:13:01;;;;;;;927.30;854.80;;;6.10;99.90;;;;;;5032018;28;20449;-87
2021/10/10 07:16:15;;;;;;;940.47;867.83;;;6.30;99.90;;;;;;5027147;28;20464;-86
2021/10/10 07:18:58;;;;;;;931.23;859.53;;;6.30;99.90;;;;;;5033190;28;20956;-86
2021/10/10 07:21:39;;;;;;;920.63;849.57;;;6.40;99.90;;;;;;5035870;28;20444;-87
2021/10/10 07:26:50;;;;;;;936.40;864.73;;;6.70;99.90;;;;;;5034238;28;20519;-89
2021/10/10 07:29:17;;;;;;;927.17;855.90;;;6.70;99.90;;;;;;5033344;28;20518;-90
2021/10/10 07:31:44;;;;;;;905.23;834.70;;;6.90;99.90;;;;;;5034430;28;20834;-91
2021/10/10 07:34:16;;;;;;;913.60;845.53;;;7.00;99.90;;;;;;5034825;28;20460;-90
2021/10/10 07:36:43;;;;;;;919.90;850.70;;;7.10;99.90;;;;;;5036615;28;20452;-88
2021/10/10 07:42:56;;;;;;;;;;;;;;;;;;;;;
2021/10/10 07:46:05;;;;;;;;;;;;;;;;;;;;;
2021/10/10 07:52:15;;;;;;;904.60;839.77;;;7.50;99.90;;;;;;4958471;28;20458;-89
2021/10/10 07:54:45;;;;;;;902.27;839.70;;;7.60;99.90;;;;;;4992738;28;20521;-92
2021/10/10 07:57:12;;;;;;;883.63;823.87;;;7.70;99.90;;;;;;4992175;28;20566;-83
2021/10/10 07:59:39;;;;;;;879.97;821.00;;;7.80;99.90;;;;;;4991002;28;20861;-81
2021/10/10 08:02:11;;;;;;;865.63;809.20;;;7.90;99.90;;;;;;5008105;28;20552;-89
2021/10/10 08:04:40;;;;;;;864.43;808.53;;;7.90;99.90;;;;;;5035202;28;20487;-88
2021/10/10 08:07:11;;;;;;;846.50;794.83;;;8.00;99.90;;;;;;5034563;28;20456;-86
2021/10/10 08:09:38;;;;;;;834.00;784.37;;;7.90;99.90;;;;;;5034519;28;20843;-89
2021/10/10 08:12:06;;;;;;;819.83;772.13;;;7.90;99.90;;;;;;5034948;28;20510;-85
2021/10/10 08:14:40;;;;;;;814.73;766.83;;;7.90;99.90;;;;;;5032869;28;20483;-91
2021/10/10 08:17:15;;;;;;;822.87;774.27;;;8.00;99.90;;;;;;5033784;28;20824;-92
2021/10/10 08:19:45;;;;;;;814.07;765.87;;;8.20;99.90;;;;;;5021015;28;20956;-87
2021/10/10 08:22:14;;;;;;;750.20;708.90;;;8.30;99.90;;;;;;5029433;28;20453;-90
2021/10/10 08:24:41;;;;;;;698.23;662.50;;;8.30;99.90;;;;;;5034000;28;20448;-89
2021/10/10 08:27:08;;;;;;;605.10;574.80;;;8.40;99.90;;;;;;5033939;28;20499;-93
2021/10/10 08:29:38;;;;;;;588.17;560.03;;;8.40;99.90;;;;;;5032125;28;20461;-92
2021/10/10 08:32:06;;;;;;;578.90;551.47;;;8.60;99.90;;;;;;5033288;28;20811;-93
2021/10/10 08:34:36;;;;;;;507.80;484.67;;;8.70;99.90;;;;;;4998425;28;21035;-87
2021/10/10 08:37:34;;;;;;;465.77;444.80;;;8.80;99.90;;;;;;5033125;28;20444;-90
2021/10/10 08:40:02;;;;;;;435.13;416.10;;;9.00;99.90;;;;;;5026614;28;20496;-92
2021/10/10 08:42:33;;;;;;;363.20;348.63;;;9.00;99.90;;;;;;5033850;28;20539;-91
2021/10/10 08:45:06;;;;;;;317.53;304.40;;;9.30;99.90;;;;;;5032969;28;20472;-89
2021/10/10 08:47:43;;;;;;;215.40;207.00;;;9.40;99.90;;;;;;5033291;28;20517;-93
2021/10/10 08:50:18;;;;;;;132.97;126.47;;;9.70;99.90;;;;;;5033515;28;20609;-91
2021/10/10 08:52:51;;;;;;;40.27;37.00;;;10.00;99.90;;;;;;5033314;28;20459;-89
2021/10/10 08:55:48;;;;;;;25.07;22.33;;;10.50;99.90;;;;;;5033515;28;20967;-93
2021/10/10 08:58:52;;;;;;;22.10;13.70;;;11.10;99.90;;;;;;5017975;28;20834;-87
2021/10/10 09:01:37;;;;;;;17.07;12.10;;;11.70;99.90;;;;;;5019646;28;20458;-92
2021/10/10 09:04:27;;;;;;;22.37;11.67;;;12.00;99.30;;;;;;5033411;28;20458;-92
2021/10/10 09:10:44;;;;;;;21.10;12.73;;;12.90;94.40;;;;;;5014983;28;20444;-87
2021/10/10 09:13:23;;;;;;;20.83;12.13;;;12.90;82.50;;;;;;4988390;28;20452;-93
2021/10/10 09:15:50;;;;;;;24.10;12.30;;;13.00;79.80;;;;;;5031651;28;20445;-85
2021/10/10 09:18:19;;;;;;;16.63;11.50;;;13.40;85.70;;;;;;5032761;28;20869;-84
2021/10/10 09:20:53;;;;;;;25.83;16.67;;;13.70;80.40;;;;;;5029024;28;20519;-81
2021/10/10 09:26:43;;;;;;;25.57;18.00;;;14.20;79.90;;;;;;4842038;29;20480;-87
2021/10/10 09:29:34;;;;;;;19.83;14.10;;;14.50;73.20;;;;;;4936359;28;20470;-86
2021/10/10 09:32:13;;;;;;;21.53;14.00;;;14.80;69.40;;;;;;5015806;28;20500;-86
2021/10/10 09:34:43;;;;;;;28.60;15.00;;;15.20;73.00;;;;;;5032913;28;20548;-84
2021/10/10 09:37:21;;;;;;;17.33;12.50;;;15.10;63.60;;;;;;5032848;28;20530;-88
2021/10/10 09:39:57;;;;;;;22.60;17.40;;;15.50;61.50;;;;;;5036087;28;20550;-83
2021/10/10 09:42:36;;;;;;;19.27;11.23;;;15.40;54.10;;;;;;5036492;28;20526;-88
2021/10/10 09:45:22;;;;;;;16.03;9.67;;;15.90;56.30;;;;;;5035436;28;20459;-85
2021/10/10 09:47:56;;;;;;;20.63;11.50;;;16.50;55.40;;;;;;5036323;28;20512;-86
2021/10/10 09:50:29;;;;;;;17.00;10.00;;;16.80;49.10;;;;;;5036386;28;20450;-88
2021/10/10 09:53:29;;;;;;;16.87;10.10;;;17.30;50.70;;;;;;5036395;28;20493;-83
2021/10/10 09:56:28;;;;;;;17.07;9.73;;;17.50;42.70;;;;;;5009846;28;20493;-85
2021/10/10 09:59:18;;;;;;;12.97;8.60;;;17.60;44.50;;;;;;5014236;28;20622;-86
2021/10/10 10:02:00;;;;;;;16.60;10.33;;;17.30;38.60;;;;;;5014665;28;20464;-86
2021/10/10 10:04:28;;;;;;;16.83;9.23;;;17.10;39.10;;;;;;5016541;28;20495;-87
2021/10/10 10:07:20;;;;;;;14.13;9.57;;;17.40;39.70;;;;;;5016229;28;20476;-86
2021/10/10 10:09:51;;;;;;;17.43;10.27;;;17.40;38.60;;;;;;5011418;28;20491;-90
2021/10/10 10:12:25;;;;;;;17.43;9.60;;;17.50;37.30;;;;;;5016348;28;20466;-86
2021/10/10 10:15:04;;;;;;;17.87;9.73;;;17.60;34.50;;;;;;5015148;28;20517;-88
2021/10/10 10:17:52;;;;;;;16.70;9.70;;;18.10;32.00;;;;;;5017248;28;20971;-83
2021/10/10 10:20:27;;;;;;;13.47;9.80;;;18.60;32.40;;;;;;5016122;28;20454;-88
2021/10/10 10:23:42;;;;;;;;;;;;;;;;;;;;;
2021/10/10 10:26:48;;;;;;;17.20;9.10;;;19.20;26.50;;;;;;5014638;28;20995;-86
2021/10/10 10:29:19;;;;;;;14.73;9.17;;;20.10;23.20;;;;;;5014636;28;20490;-86
2021/10/10 10:35:02;;;;;;;15.57;8.40;;;20.00;20.60;;;;;;4945930;28;20865;-87
2021/10/10 10:37:55;;;;;;;14.37;9.50;;;20.60;20.10;;;;;;5015623;28;20465;-83
2021/10/10 10:40:34;;;;;;;11.33;5.60;;;20.00;18.60;;;;;;5015465;28;20459;-85
2021/10/10 10:43:08;;;;;;;11.37;8.13;;;19.90;17.30;;;;;;5015490;28;20455;-86
2021/10/10 10:45:39;;;;;;;12.17;6.60;;;20.50;16.90;;;;;;5014575;28;20567;-83
2021/10/10 10:48:39;;;;;;;14.07;7.90;;;21.30;15.10;;;;;;5015585;28;20451;-84
2021/10/10 10:51:22;;;;;;;14.23;8.77;;;21.80;12.50;;;;;;5014090;28;20480;-86
2021/10/10 10:53:54;;;;;;;15.30;8.03;;;21.90;13.60;;;;;;5016419;28;20509;-86
2021/10/10 10:56:28;;;;;;;17.33;7.87;;;22.40;12.10;;;;;;5031560;28;20543;-87
2021/10/10 10:59:02;;;;;;;14.83;7.57;;;22.10;11.70;;;;;;5035136;28;21049;-88
2021/10/10 11:02:22;;;;;;;14.40;8.00;;;21.30;11.30;;;;;;5033768;28;20454;-88
2021/10/10 11:05:12;;;;;;;14.73;8.80;;;21.40;13.90;;;;;;5034753;28;20545;-87
2021/10/10 11:08:11;;;;;;;11.43;6.80;;;21.50;13.30;;;;;;5034549;28;20582;-87
2021/10/10 11:11:25;;;;;;;12.10;8.07;;;21.50;13.30;;;;;;5034570;28;20546;-87
2021/10/10 11:14:04;;;;;;;17.30;8.53;;;20.60;14.30;;;;;;5014715;28;20467;-87
2021/10/10 11:16:48;;;;;;;32.73;10.90;;;20.10;16.90;;;;;;5013922;28;20826;-87
2021/10/10 11:19:36;;;;;;;12.10;8.17;;;20.40;15.80;;;;;;5014989;28;20471;-86
2021/10/10 11:27:40;;;;;;;11.47;7.13;;;20.90;16.30;;;;;;5027368;28;20585;-87
2021/10/10 11:30:20;;;;;;;14.27;9.43;;;20.60;14.70;;;;;;5033377;28;20865;-87
2021/10/10 11:33:00;;;;;;;19.03;9.40;;;20.40;15.40;;;;;;5033725;28;20458;-87
2021/10/10 11:35:29;;;;;;;15.50;8.17;;;20.00;16.60;;;;;;5034513;28;20950;-84
2021/10/10 11:38:06;;;;;;;13.97;9.03;;;19.80;18.40;;;;;;5017594;28;20473;-86
2021/10/10 11:40:35;;;;;;;12.50;8.27;;;19.30;17.90;;;;;;5014671;28;20459;-85
2021/10/10 11:43:33;;;;;;;17.00;9.00;;;19.70;18.00;;;;;;5020102;28;20526;-87
2021/10/10 11:46:11;;;;;;;18.33;8.90;;;19.50;16.80;;;;;;5033019;28;20510;-85
2021/10/10 11:48:56;;;;;;;16.20;9.27;;;19.20;18.10;;;;;;5033939;28;20551;-86
2021/10/10 11:51:39;;;;;;;16.53;9.33;;;18.90;20.90;;;;;;5033966;28;20465;-85
2021/10/10 11:54:27;;;;;;;14.40;8.63;;;18.90;20.50;;;;;;5033963;28;20484;-86
2021/10/10 11:56:59;;;;;;;15.30;8.67;;;19.10;19.10;;;;;;5033351;28;20577;-86
2021/10/10 11:59:38;;;;;;;16.10;7.37;;;19.50;19.30;;;;;;5032850;28;20462;-87
2021/10/10 12:02:16;;;;;;;12.97;7.77;;;20.00;17.30;;;;;;5033422;28;20463;-87
2021/10/10 12:05:40;;;;;;;;;;;;;;;;;;;;;
2021/10/10 12:11:43;;;;;;;19.73;9.80;;;22.80;7.90;;;;;;5031820;28;20462;-87
2021/10/10 12:14:52;;;;;;;15.67;8.87;;;23.10;6.80;;;;;;5033581;28;20486;-88
2021/10/10 12:17:38;;;;;;;15.50;7.87;;;24.00;4.20;;;;;;5033709;28;20563;-88
2021/10/10 12:20:50;;;;;;;16.50;9.40;;;23.40;3.50;;;;;;5033339;28;20494;-87
2021/10/10 12:23:50;;;;;;;18.80;10.00;;;23.70;4.80;;;;;;4952928;29;20459;-88
2021/10/10 12:26:22;;;;;;;23.47;17.67;;;23.30;2.00;;;;;;5013449;28;20520;-88
2021/10/10 12:42:52;;;;;;;21.57;18.07;;;23.40;1.40;;;;;;4752824;29;20521;-87
2021/10/10 12:45:42;;;;;;;21.97;16.37;;;24.70;1.20;;;;;;4898557;29;20966;-88
2021/10/10 12:51:32;;;;;;;27.17;17.53;;;23.60;1.00;;;;;;5003820;28;20472;-87
2021/10/10 12:57:50;;;;;;;24.10;16.77;;;23.50;1.00;;;;;;4946932;28;20539;-88
2021/10/10 13:00:59;;;;;;;;;;;;;;;;;;;;;
2021/10/10 13:03:35;;;;;;;19.93;14.57;;;24.40;1.00;;;;;;5011594;28;20857;-86
2021/10/10 13:06:21;;;;;;;18.77;14.43;;;24.70;1.00;;;;;;5013255;28;20452;-87
2021/10/10 13:08:57;;;;;;;17.23;13.80;;;24.50;1.00;;;;;;5013226;28;20629;-87
2021/10/10 13:11:48;;;;;;;21.00;13.90;;;24.30;1.00;;;;;;5013233;28;20816;-87
2021/10/10 13:17:30;;;;;;;;;;;;;;;;;;;;;
2021/10/10 13:20:13;;;;;;;19.07;14.10;;;22.20;1.20;;;;;;5017156;28;20471;-89
2021/10/10 13:22:43;;;;;;;19.03;15.53;;;21.30;5.50;;;;;;5001917;28;20504;-87
2021/10/10 13:25:11;;;;;;;23.27;17.70;;;20.50;8.70;;;;;;5036708;28;20456;-89
2021/10/10 13:27:38;;;;;;;20.40;16.07;;;19.50;11.90;;;;;;5030942;28;20514;-90
2021/10/10 13:30:06;;;;;;;24.40;16.73;;;19.10;13.90;;;;;;5035520;28;20453;-87
2021/10/10 13:32:38;;;;;;;20.60;16.10;;;18.80;15.00;;;;;;5036521;28;20460;-87
2021/10/10 13:38:22;;;;;;;25.70;18.60;;;17.90;21.60;;;;;;4898535;29;20803;-86
2021/10/10 13:40:49;;;;;;;28.83;18.40;;;17.60;21.20;;;;;;4962566;28;20503;-88
2021/10/10 13:43:16;;;;;;;22.27;17.93;;;17.50;22.30;;;;;;4975289;28;20533;-87
2021/10/10 13:45:47;;;;;;;25.63;17.00;;;17.20;22.00;;;;;;4974103;28;20969;-88
2021/10/10 13:48:17;;;;;;;25.10;16.77;;;17.20;25.00;;;;;;4975037;28;20512;-88
2021/10/10 13:50:47;;;;;;;21.27;16.53;;;17.20;23.90;;;;;;5036425;28;20453;-89
2021/10/10 13:53:17;;;;;;;25.83;15.77;;;17.10;24.00;;;;;;5036393;28;20493;-89
2021/10/10 13:55:49;;;;;;;24.40;15.83;;;17.40;25.10;;;;;;5027981;28;20515;-89
2021/10/10 13:58:16;;;;;;;25.50;16.73;;;17.20;22.70;;;;;;5032196;28;20462;-89
2021/10/10 14:00:50;;;;;;;22.40;16.03;;;17.30;25.10;;;;;;5035037;28;20458;-88